Hitchins, Kentucky
Current Conditions -  °F | °C
As of 1:51 PM on Monday 22 Dec 2014 (Local Time) from KHTS Reporting Station
Clear Clear  
Wind Chill: 57°   Ceiling: Unl
Heat Index: 57°   Visibility: 10mi
Dew Point: 38°   Wind: 0mph
Humidity: 49%   Direction: NA
Pressure: 29.89"   Gusts: NA
Location:  38.28°N, 82.92°W
Report Text: KHTS 221851Z 00000KT 10SM CLR 14/03 A2989 RMK AO2 SLP125 T01390033
Loading
Personal Weather Stations






























Interactive Weather Map New forecast layout! Learn more

10-Day Weather Forecast

Advertisements
Track Severe Weather on mobile